Time;durP1;ratioP1;P1;durP2;ratioP2;P2;SDS_P1;SDS_P2;PMS_P1;PMS_P2;Temp;Humidity;BMP_temperature;BMP_pressure;BME280_temperature;BME280_humidity;BME280_pressure;Samples;Min_cycle;Max_cycle;Signal;HPM_P1;HPM_P2
2019/08/27 00:00:54;;;;;;;12.4;11.2;;;;;;;18.43;100;95344.56;;;;
2019/08/27 00:01:57;;;;;;;12.4;11.2;;;;;;;18.43;100;95344.56;;;;
2019/08/27 00:02:58;;;;;;;11.6;10.6;;;;;;;18.42;100;95334.74;;;;
2019/08/27 00:03:59;;;;;;;11.6;10.6;;;;;;;18.42;100;95334.74;;;;
2019/08/27 00:05:01;;;;;;;11.6;10.6;;;;;;;18.42;100;95334.74;;;;
2019/08/27 00:06:03;;;;;;;12.15;11.1;;;;;;;18.41;100;95335.28;;;;
2019/08/27 00:07:05;;;;;;;12.15;11.1;;;;;;;18.41;100;95335.28;;;;
2019/08/27 00:08:06;;;;;;;12.15;10.95;;;;;;;18.41;100;95333.5;;;;
2019/08/27 00:09:08;;;;;;;12.15;10.95;;;;;;;18.41;100;95333.5;;;;
2019/08/27 00:10:10;;;;;;;12.15;10.95;;;;;;;18.41;100;95333.5;;;;
2019/08/27 00:11:12;;;;;;;11.65;10.45;;;;;;;18.41;100;95333.92;;;;
2019/08/27 00:12:13;;;;;;;11.65;10.45;;;;;;;18.41;100;95333.92;;;;
2019/08/27 00:13:14;;;;;;;12.35;11.2;;;;;;;18.42;100;95332.79;;;;
2019/08/27 00:14:16;;;;;;;12.35;11.2;;;;;;;18.42;100;95332.79;;;;
2019/08/27 00:15:17;;;;;;;12.35;11.2;;;;;;;18.42;100;95332.79;;;;
2019/08/27 00:16:19;;;;;;;10.85;9.85;;;;;;;18.43;100;95332.26;;;;
2019/08/27 00:17:20;;;;;;;10.85;9.85;;;;;;;18.43;100;95332.26;;;;
2019/08/27 00:20:21;;;;;;;11.3;10.2;;;;;;;18.43;100;95335;;;;
2019/08/27 00:21:24;;;;;;;11.35;10.25;;;;;;;18.43;100;95339.51;;;;
2019/08/27 00:22:25;;;;;;;11.35;10.25;;;;;;;18.43;100;95339.51;;;;
2019/08/27 00:23:26;;;;;;;11.35;10.25;;;;;;;18.43;100;95339.51;;;;
2019/08/27 00:24:27;;;;;;;11.3;10.25;;;;;;;18.41;100;95338.43;;;;
2019/08/27 00:25:28;;;;;;;11.3;10.25;;;;;;;18.41;100;95338.43;;;;
2019/08/27 00:26:31;;;;;;;11.3;10.2;;;;;;;18.4;100;95341.02;;;;
2019/08/27 00:27:32;;;;;;;11.3;10.2;;;;;;;18.4;100;95341.02;;;;
2019/08/27 00:28:33;;;;;;;11.3;10.2;;;;;;;18.4;100;95341.02;;;;
2019/08/27 00:29:35;;;;;;;11.25;10.15;;;;;;;18.36;100;95349.5;;;;
2019/08/27 00:30:36;;;;;;;11.25;10.15;;;;;;;18.36;100;95349.5;;;;
2019/08/27 00:31:40;;;;;;;11.7;10.6;;;;;;;18.33;100;95343.66;;;;
2019/08/27 00:32:41;;;;;;;11.7;10.6;;;;;;;18.33;100;95343.66;;;;
2019/08/27 00:33:42;;;;;;;11.7;10.6;;;;;;;18.33;100;95343.66;;;;
2019/08/27 00:34:43;;;;;;;11.8;10.7;;;;;;;18.29;100;95344.78;;;;
2019/08/27 00:35:45;;;;;;;11.8;10.7;;;;;;;18.29;100;95344.78;;;;
2019/08/27 00:36:46;;;;;;;11.8;10.7;;;;;;;18.29;100;95344.78;;;;
2019/08/27 00:37:47;;;;;;;11.8;10.7;;;;;;;18.29;100;95344.78;;;;
2019/08/27 00:38:48;;;;;;;11.8;10.7;;;;;;;18.29;100;95344.78;;;;
2019/08/27 00:39:49;;;;;;;11.8;10.7;;;;;;;18.29;100;95344.78;;;;
2019/08/27 00:40:51;;;;;;;11.8;10.7;;;;;;;18.29;100;95344.78;;;;
2019/08/27 00:41:52;;;;;;;11.8;10.7;;;;;;;18.29;100;95344.78;;;;
2019/08/27 00:42:53;;;;;;;11.8;10.7;;;;;;;18.29;100;95344.78;;;;
2019/08/27 00:43:54;;;;;;;11.8;10.7;;;;;;;18.29;100;95344.78;;;;
2019/08/27 00:44:56;;;;;;;11.25;10.2;;;;;;;17.8;100;95345.68;;;;
2019/08/27 00:45:57;;;;;;;11.25;10.2;;;;;;;17.8;100;95345.68;;;;
2019/08/27 00:47:00;;;;;;;11.25;10.2;;;;;;;17.8;100;95345.68;;;;
2019/08/27 00:48:23;;;;;;;12.55;11.35;;;;;;;17.76;100;95346.51;;;;
2019/08/27 00:49:24;;;;;;;12.55;11.35;;;;;;;17.76;100;95346.51;;;;
2019/08/27 00:50:25;;;;;;;12.75;11.55;;;;;;;17.75;100;95352.92;;;;
2019/08/27 00:51:26;;;;;;;12.75;11.55;;;;;;;17.75;100;95352.92;;;;
2019/08/27 00:52:27;;;;;;;12.75;11.55;;;;;;;17.75;100;95352.92;;;;
2019/08/27 00:53:29;;;;;;;13.05;11.9;;;;;;;17.74;100;95347.2;;;;
2019/08/27 00:54:30;;;;;;;13.05;11.9;;;;;;;17.74;100;95347.2;;;;
2019/08/27 00:55:31;;;;;;;12.6;11.4;;;;;;;17.74;100;95342.28;;;;
2019/08/27 00:56:32;;;;;;;12.6;11.4;;;;;;;17.74;100;95342.28;;;;
2019/08/27 00:57:33;;;;;;;12.6;11.4;;;;;;;17.74;100;95342.28;;;;
2019/08/27 00:58:35;;;;;;;12.55;11.45;;;;;;;17.72;100;95342.72;;;;
2019/08/27 00:59:36;;;;;;;12.55;11.45;;;;;;;17.72;100;95342.72;;;;
2019/08/27 01:00:37;;;;;;;12.9;11.7;;;;;;;17.7;100;95347.49;;;;
2019/08/27 01:01:38;;;;;;;12.9;11.7;;;;;;;17.7;100;95347.49;;;;
2019/08/27 01:02:40;;;;;;;12.9;11.7;;;;;;;17.7;100;95347.49;;;;
2019/08/27 01:03:41;;;;;;;12.6;11.5;;;;;;;17.68;100;95348.32;;;;
2019/08/27 01:04:42;;;;;;;12.6;11.5;;;;;;;17.68;100;95348.32;;;;
2019/08/27 01:05:44;;;;;;;12.6;11.5;;;;;;;17.68;100;95348.32;;;;
2019/08/27 01:06:45;;;;;;;12.6;11.5;;;;;;;17.68;100;95348.32;;;;
2019/08/27 01:07:46;;;;;;;12.6;11.5;;;;;;;17.68;100;95348.32;;;;
2019/08/27 01:08:48;;;;;;;12.6;11.5;;;;;;;17.68;100;95348.32;;;;
2019/08/27 01:09:49;;;;;;;12.6;11.5;;;;;;;17.68;100;95348.32;;;;
2019/08/27 01:10:50;;;;;;;12.6;11.5;;;;;;;17.68;100;95348.32;;;;
2019/08/27 01:11:52;;;;;;;12.6;11.5;;;;;;;17.68;100;95348.32;;;;
2019/08/27 01:12:53;;;;;;;12.6;11.5;;;;;;;17.68;100;95348.32;;;;
2019/08/27 01:13:54;;;;;;;12.6;11.5;;;;;;;17.68;100;95348.32;;;;
2019/08/27 01:14:56;;;;;;;12.6;11.5;;;;;;;17.68;100;95348.32;;;;
2019/08/27 01:15:57;;;;;;;12.6;11.5;;;;;;;17.68;100;95348.32;;;;
2019/08/27 01:17:20;;;;;;;12.65;11.45;;;;;;;17.29;100;95326.98;;;;
2019/08/27 01:18:21;;;;;;;12.65;11.45;;;;;;;17.29;100;95326.98;;;;
2019/08/27 01:19:23;;;;;;;12.65;11.45;;;;;;;17.29;100;95326.98;;;;
2019/08/27 01:20:24;;;;;;;12.65;11.45;;;;;;;17.29;100;95326.98;;;;
2019/08/27 01:21:25;;;;;;;12.65;11.45;;;;;;;17.29;100;95326.98;;;;
2019/08/27 01:22:27;;;;;;;12.65;11.45;;;;;;;17.29;100;95326.98;;;;
2019/08/27 01:23:28;;;;;;;12.65;11.45;;;;;;;17.29;100;95326.98;;;;
2019/08/27 01:24:30;;;;;;;12.65;11.45;;;;;;;17.29;100;95326.98;;;;
2019/08/27 01:25:31;;;;;;;12.65;11.45;;;;;;;17.29;100;95326.98;;;;
2019/08/27 01:26:33;;;;;;;12.65;11.45;;;;;;;17.29;100;95326.98;;;;
2019/08/27 01:27:34;;;;;;;13.25;12;;;;;;;16.98;100;95338.49;;;;
2019/08/27 01:28:35;;;;;;;13.25;12;;;;;;;16.98;100;95338.49;;;;
2019/08/27 01:29:37;;;;;;;13.25;12;;;;;;;16.98;100;95338.49;;;;
2019/08/27 01:30:38;;;;;;;13.3;12;;;;;;;16.95;100;95330.83;;;;
2019/08/27 01:31:40;;;;;;;13.3;12;;;;;;;16.95;100;95330.83;;;;
2019/08/27 01:32:41;;;;;;;13.3;12;;;;;;;16.95;100;95330.83;;;;
2019/08/27 01:33:43;;;;;;;13.3;12;;;;;;;16.95;100;95330.83;;;;
2019/08/27 01:35:20;;;;;;;13.3;12;;;;;;;16.95;100;95330.83;;;;
2019/08/27 01:36:24;;;;;;;13.3;12;;;;;;;16.95;100;95330.83;;;;
2019/08/27 01:37:25;;;;;;;13.3;12;;;;;;;16.95;100;95330.83;;;;
2019/08/27 01:38:27;;;;;;;13.3;12;;;;;;;16.95;100;95330.83;;;;
2019/08/27 01:39:28;;;;;;;13.3;12;;;;;;;16.95;100;95330.83;;;;
2019/08/27 01:40:29;;;;;;;13.3;12;;;;;;;16.95;100;95330.83;;;;
2019/08/27 01:41:32;;;;;;;13.6;12.2;;;;;;;16.68;100;95330.71;;;;
2019/08/27 01:47:42;;;;;;;13.7;12.4;;;;;;;16.71;100;95327.84;;;;
2019/08/27 01:48:43;;;;;;;14.05;12.65;;;;;;;16.75;100;95333.56;;;;
2019/08/27 01:49:45;;;;;;;14.05;12.65;;;;;;;16.75;100;95333.56;;;;
2019/08/27 01:50:46;;;;;;;14.05;12.65;;;;;;;16.75;100;95333.56;;;;
2019/08/27 01:51:48;;;;;;;14.05;12.65;;;;;;;16.75;100;95333.56;;;;
2019/08/27 01:52:49;;;;;;;14.05;12.65;;;;;;;16.75;100;95333.56;;;;
2019/08/27 01:53:50;;;;;;;14.05;12.65;;;;;;;16.75;100;95333.56;;;;
2019/08/27 01:54:52;;;;;;;14.05;12.65;;;;;;;16.75;100;95333.56;;;;
2019/08/27 01:55:53;;;;;;;14.05;12.65;;;;;;;16.75;100;95333.56;;;;
2019/08/27 01:56:54;;;;;;;14.05;12.65;;;;;;;16.75;100;95333.56;;;;
2019/08/27 01:57:55;;;;;;;14.05;12.65;;;;;;;16.75;100;95333.56;;;;
2019/08/27 01:58:57;;;;;;;14.05;12.65;;;;;;;16.75;100;95333.56;;;;
2019/08/27 01:59:58;;;;;;;13.25;11.9;;;;;;;16.46;100;95345.51;;;;
2019/08/27 02:00:59;;;;;;;13.25;11.9;;;;;;;16.46;100;95345.51;;;;
2019/08/27 02:02:06;;;;;;;14.55;13.15;;;;;;;16.46;100;95339.68;;;;
2019/08/27 02:03:08;;;;;;;14.55;13.15;;;;;;;16.46;100;95339.68;;;;
2019/08/27 02:04:10;;;;;;;14.55;13.15;;;;;;;16.46;100;95339.68;;;;
2019/08/27 02:05:11;;;;;;;14.55;13.15;;;;;;;16.46;100;95339.68;;;;
2019/08/27 02:06:14;;;;;;;14.55;13.15;;;;;;;16.46;100;95339.68;;;;
2019/08/27 02:07:16;;;;;;;14.55;13.15;;;;;;;16.46;100;95339.68;;;;
2019/08/27 02:08:17;;;;;;;14.55;13.15;;;;;;;16.46;100;95339.68;;;;
2019/08/27 02:09:19;;;;;;;14.55;13.15;;;;;;;16.46;100;95339.68;;;;
2019/08/27 02:10:20;;;;;;;14.55;13.15;;;;;;;16.46;100;95339.68;;;;
2019/08/27 02:11:22;;;;;;;14.55;13.15;;;;;;;16.46;100;95339.68;;;;
2019/08/27 02:12:23;;;;;;;14.75;13.05;;;;;;;16.27;100;95352.58;;;;
2019/08/27 02:13:24;;;;;;;14.75;13.05;;;;;;;16.27;100;95352.58;;;;
2019/08/27 02:14:26;;;;;;;14.75;13.05;;;;;;;16.27;100;95352.58;;;;
2019/08/27 02:15:27;;;;;;;14.85;13.3;;;;;;;16.3;100;95354.35;;;;
2019/08/27 02:16:29;;;;;;;14.85;13.3;;;;;;;16.3;100;95354.35;;;;
2019/08/27 02:17:30;;;;;;;14.85;13.3;;;;;;;16.3;100;95354.35;;;;
2019/08/27 02:18:32;;;;;;;14.85;13.3;;;;;;;16.3;100;95354.35;;;;
2019/08/27 02:19:33;;;;;;;14.85;13.3;;;;;;;16.3;100;95354.35;;;;
2019/08/27 02:20:34;;;;;;;14.85;13.3;;;;;;;16.3;100;95354.35;;;;
2019/08/27 02:21:39;;;;;;;14.85;13.3;;;;;;;16.3;100;95354.35;;;;
2019/08/27 02:22:40;;;;;;;14.85;13.3;;;;;;;16.3;100;95354.35;;;;
2019/08/27 02:23:41;;;;;;;14.85;13.3;;;;;;;16.3;100;95354.35;;;;
2019/08/27 02:24:43;;;;;;;14.85;13.3;;;;;;;16.3;100;95354.35;;;;
2019/08/27 02:25:44;;;;;;;15.05;13.1;;;;;;;16.16;100;95355.83;;;;
2019/08/27 02:26:46;;;;;;;15.05;13.1;;;;;;;16.16;100;95355.83;;;;
2019/08/27 02:27:47;;;;;;;15.05;13.1;;;;;;;16.16;100;95355.83;;;;
2019/08/27 02:28:48;;;;;;;15;13.5;;;;;;;16.19;100;95361.27;;;;
2019/08/27 02:29:49;;;;;;;15;13.5;;;;;;;16.19;100;95361.27;;;;
2019/08/27 02:30:51;;;;;;;15;13.5;;;;;;;16.19;100;95361.27;;;;
2019/08/27 02:31:52;;;;;;;15;13.5;;;;;;;16.19;100;95361.27;;;;
2019/08/27 02:32:53;;;;;;;15;13.5;;;;;;;16.19;100;95361.27;;;;
2019/08/27 02:33:54;;;;;;;15;13.5;;;;;;;16.19;100;95361.27;;;;
2019/08/27 02:34:55;;;;;;;15;13.5;;;;;;;16.19;100;95361.27;;;;
2019/08/27 02:35:56;;;;;;;15;13.5;;;;;;;16.19;100;95361.27;;;;
2019/08/27 02:36:58;;;;;;;15;13.5;;;;;;;16.19;100;95361.27;;;;
2019/08/27 02:37:59;;;;;;;15;13.5;;;;;;;16.19;100;95361.27;;;;
2019/08/27 02:39:00;;;;;;;14.25;12.75;;;;;;;16.05;100;95366.96;;;;
2019/08/27 02:40:03;;;;;;;14.25;12.75;;;;;;;16.05;100;95366.96;;;;
2019/08/27 02:41:05;;;;;;;14.25;12.75;;;;;;;16.05;100;95366.96;;;;
2019/08/27 02:42:06;;;;;;;14.25;12.75;;;;;;;16.05;100;95366.96;;;;
2019/08/27 02:43:07;;;;;;;14.25;12.75;;;;;;;16.05;100;95366.96;;;;
2019/08/27 02:44:09;;;;;;;14.25;12.75;;;;;;;16.05;100;95366.96;;;;
2019/08/27 02:45:10;;;;;;;14.25;12.75;;;;;;;16.05;100;95366.96;;;;
2019/08/27 02:46:11;;;;;;;14.25;12.75;;;;;;;16.05;100;95366.96;;;;
2019/08/27 02:47:13;;;;;;;14.25;12.75;;;;;;;16.05;100;95366.96;;;;
2019/08/27 02:48:14;;;;;;;14.25;12.75;;;;;;;16.05;100;95366.96;;;;
2019/08/27 02:49:15;;;;;;;14.25;12.75;;;;;;;16.05;100;95366.96;;;;
2019/08/27 02:50:16;;;;;;;15.8;14.15;;;;;;;15.98;100;95364.49;;;;
2019/08/27 02:51:20;;;;;;;15.8;14.15;;;;;;;15.98;100;95364.49;;;;
2019/08/27 02:52:21;;;;;;;15.8;14.15;;;;;;;15.98;100;95364.49;;;;
2019/08/27 02:53:22;;;;;;;15.8;14.15;;;;;;;15.98;100;95364.49;;;;
2019/08/27 02:54:23;;;;;;;15.8;14.15;;;;;;;15.98;100;95364.49;;;;
2019/08/27 02:55:24;;;;;;;15.8;14.15;;;;;;;15.98;100;95364.49;;;;
2019/08/27 02:56:39;;;;;;;15.8;14.15;;;;;;;15.98;100;95364.49;;;;
2019/08/27 02:57:40;;;;;;;15.8;14.15;;;;;;;15.98;100;95364.49;;;;
2019/08/27 02:58:41;;;;;;;15.8;14.15;;;;;;;15.98;100;95364.49;;;;
2019/08/27 02:59:42;;;;;;;15.8;14.15;;;;;;;15.98;100;95364.49;;;;
2019/08/27 03:00:44;;;;;;;15.65;14.15;;;;;;;15.85;100;95360.89;;;;
2019/08/27 03:01:48;;;;;;;15.65;14.15;;;;;;;15.85;100;95360.89;;;;
2019/08/27 03:02:49;;;;;;;15.65;14.15;;;;;;;15.85;100;95360.89;;;;
2019/08/27 03:03:51;;;;;;;15.65;14.15;;;;;;;15.85;100;95360.89;;;;
2019/08/27 03:04:52;;;;;;;15.65;14.15;;;;;;;15.85;100;95360.89;;;;
2019/08/27 03:05:54;;;;;;;15.65;14.15;;;;;;;15.85;100;95360.89;;;;
2019/08/27 03:06:57;;;;;;;15.65;14.15;;;;;;;15.85;100;95360.89;;;;
2019/08/27 03:07:58;;;;;;;15.65;14.15;;;;;;;15.85;100;95360.89;;;;
2019/08/27 03:09:00;;;;;;;15.65;14.15;;;;;;;15.85;100;95360.89;;;;
2019/08/27 03:10:05;;;;;;;15.65;14.15;;;;;;;15.85;100;95360.89;;;;
2019/08/27 03:11:10;;;;;;;15.9;14.3;;;;;;;15.81;100;95371.23;;;;
2019/08/27 03:12:11;;;;;;;15.9;14.3;;;;;;;15.81;100;95371.23;;;;
2019/08/27 03:13:13;;;;;;;15.9;14.3;;;;;;;15.81;100;95371.23;;;;
2019/08/27 03:14:15;;;;;;;15.9;14.3;;;;;;;15.81;100;95371.23;;;;
2019/08/27 03:15:16;;;;;;;15.9;14.3;;;;;;;15.81;100;95371.23;;;;
2019/08/27 03:16:19;;;;;;;15.9;14.3;;;;;;;15.81;100;95371.23;;;;
2019/08/27 03:17:20;;;;;;;15.9;14.3;;;;;;;15.81;100;95371.23;;;;
2019/08/27 03:18:22;;;;;;;15.9;14.3;;;;;;;15.81;100;95371.23;;;;
2019/08/27 03:19:28;;;;;;;15.9;14.3;;;;;;;15.81;100;95371.23;;;;
2019/08/27 03:20:30;;;;;;;15.9;14.3;;;;;;;15.81;100;95371.23;;;;
2019/08/27 03:21:34;;;;;;;16.3;14.7;;;;;;;15.73;100;95375.41;;;;
2019/08/27 03:22:37;;;;;;;16.3;14.7;;;;;;;15.73;100;95375.41;;;;
2019/08/27 03:23:38;;;;;;;16.3;14.7;;;;;;;15.73;100;95375.41;;;;
2019/08/27 03:24:40;;;;;;;16.3;14.7;;;;;;;15.73;100;95375.41;;;;
2019/08/27 03:25:44;;;;;;;16.3;14.7;;;;;;;15.73;100;95375.41;;;;
2019/08/27 03:26:47;;;;;;;16.3;14.7;;;;;;;15.73;100;95375.41;;;;
2019/08/27 03:27:49;;;;;;;16.3;14.7;;;;;;;15.73;100;95375.41;;;;
2019/08/27 03:28:50;;;;;;;16.3;14.7;;;;;;;15.73;100;95375.41;;;;
2019/08/27 03:29:52;;;;;;;16.3;14.7;;;;;;;15.73;100;95375.41;;;;
2019/08/27 03:30:54;;;;;;;16.3;14.7;;;;;;;15.73;100;95375.41;;;;
2019/08/27 03:31:56;;;;;;;15.75;14.15;;;;;;;15.71;100;95369.28;;;;
2019/08/27 03:32:57;;;;;;;15.75;14.15;;;;;;;15.71;100;95369.28;;;;
2019/08/27 03:33:59;;;;;;;15.75;14.15;;;;;;;15.71;100;95369.28;;;;
2019/08/27 03:35:01;;;;;;;15.75;14.15;;;;;;;15.71;100;95369.28;;;;
2019/08/27 03:36:03;;;;;;;15.75;14.15;;;;;;;15.71;100;95369.28;;;;
2019/08/27 03:37:09;;;;;;;15.75;14.15;;;;;;;15.71;100;95369.28;;;;
2019/08/27 03:38:12;;;;;;;15.75;14.15;;;;;;;15.71;100;95369.28;;;;
2019/08/27 03:39:13;;;;;;;15.75;14.15;;;;;;;15.71;100;95369.28;;;;
2019/08/27 03:40:15;;;;;;;15.75;14.15;;;;;;;15.71;100;95369.28;;;;
2019/08/27 03:41:18;;;;;;;15.75;14.15;;;;;;;15.71;100;95369.28;;;;
2019/08/27 03:42:19;;;;;;;15.2;13.8;;;;;;;15.64;100;95367.88;;;;
2019/08/27 03:43:22;;;;;;;15.2;13.8;;;;;;;15.64;100;95367.88;;;;
2019/08/27 03:44:24;;;;;;;15.2;13.8;;;;;;;15.64;100;95367.88;;;;
2019/08/27 03:45:26;;;;;;;15.2;13.8;;;;;;;15.64;100;95367.88;;;;
2019/08/27 03:46:29;;;;;;;15.2;13.8;;;;;;;15.64;100;95367.88;;;;
2019/08/27 03:47:32;;;;;;;15.2;13.8;;;;;;;15.64;100;95367.88;;;;
2019/08/27 03:48:35;;;;;;;15.2;13.8;;;;;;;15.64;100;95367.88;;;;
2019/08/27 03:49:41;;;;;;;15.2;13.8;;;;;;;15.64;100;95367.88;;;;
2019/08/27 03:50:43;;;;;;;15.2;13.8;;;;;;;15.64;100;95367.88;;;;
2019/08/27 03:51:45;;;;;;;15.2;13.8;;;;;;;15.64;100;95367.88;;;;
2019/08/27 03:52:47;;;;;;;15.2;13.8;;;;;;;15.64;100;95367.88;;;;
2019/08/27 03:53:51;;;;;;;16.15;14.55;;;;;;;15.66;100;95363.82;;;;
2019/08/27 03:54:54;;;;;;;16.15;14.55;;;;;;;15.66;100;95363.82;;;;
2019/08/27 03:55:56;;;;;;;16.15;14.55;;;;;;;15.66;100;95363.82;;;;
2019/08/27 03:56:58;;;;;;;16.15;14.55;;;;;;;15.66;100;95363.82;;;;
2019/08/27 03:58:02;;;;;;;16.15;14.55;;;;;;;15.66;100;95363.82;;;;
2019/08/27 03:59:04;;;;;;;16.15;14.55;;;;;;;15.66;100;95363.82;;;;
2019/08/27 04:00:08;;;;;;;16.15;14.55;;;;;;;15.66;100;95363.82;;;;
2019/08/27 04:01:10;;;;;;;16.15;14.55;;;;;;;15.66;100;95363.82;;;;
2019/08/27 04:02:15;;;;;;;16.15;14.55;;;;;;;15.66;100;95363.82;;;;
2019/08/27 04:03:17;;;;;;;16.15;14.55;;;;;;;15.66;100;95363.82;;;;
2019/08/27 04:04:19;;;;;;;16.65;14.95;;;;;;;15.62;100;95366.79;;;;
2019/08/27 04:05:21;;;;;;;16.65;14.95;;;;;;;15.62;100;95366.79;;;;
2019/08/27 04:06:22;;;;;;;16.65;14.95;;;;;;;15.62;100;95366.79;;;;
2019/08/27 04:07:24;;;;;;;16.65;14.95;;;;;;;15.62;100;95366.79;;;;
2019/08/27 04:08:27;;;;;;;16.65;14.95;;;;;;;15.62;100;95366.79;;;;
2019/08/27 04:09:29;;;;;;;16.65;14.95;;;;;;;15.62;100;95366.79;;;;
2019/08/27 04:10:31;;;;;;;16.65;14.95;;;;;;;15.62;100;95366.79;;;;
2019/08/27 04:11:33;;;;;;;16.65;14.95;;;;;;;15.62;100;95366.79;;;;
2019/08/27 04:12:35;;;;;;;16.65;14.95;;;;;;;15.62;100;95366.79;;;;
2019/08/27 04:13:37;;;;;;;16.65;14.95;;;;;;;15.62;100;95366.79;;;;
2019/08/27 04:14:38;;;;;;;17.3;15.15;;;;;;;15.65;100;95395.25;;;;
2019/08/27 04:15:40;;;;;;;17.3;15.15;;;;;;;15.65;100;95395.25;;;;
2019/08/27 04:16:41;;;;;;;17.3;15.15;;;;;;;15.65;100;95395.25;;;;
2019/08/27 04:17:43;;;;;;;17.3;15.15;;;;;;;15.65;100;95395.25;;;;
2019/08/27 04:18:45;;;;;;;17.3;15.15;;;;;;;15.65;100;95395.25;;;;
2019/08/27 04:19:47;;;;;;;17.3;15.15;;;;;;;15.65;100;95395.25;;;;
2019/08/27 04:20:48;;;;;;;17.3;15.15;;;;;;;15.65;100;95395.25;;;;
2019/08/27 04:21:50;;;;;;;17.3;15.15;;;;;;;15.65;100;95395.25;;;;
2019/08/27 04:22:51;;;;;;;17.3;15.15;;;;;;;15.65;100;95395.25;;;;
2019/08/27 04:23:52;;;;;;;17.3;15.15;;;;;;;15.65;100;95395.25;;;;
2019/08/27 04:24:54;;;;;;;17.5;15.65;;;;;;;15.6;100;95387.59;;;;
2019/08/27 04:25:55;;;;;;;17.5;15.65;;;;;;;15.6;100;95387.59;;;;
2019/08/27 04:26:56;;;;;;;17.5;15.65;;;;;;;15.6;100;95387.59;;;;
2019/08/27 04:27:57;;;;;;;17.5;15.65;;;;;;;15.6;100;95387.59;;;;
2019/08/27 04:28:59;;;;;;;17.5;15.65;;;;;;;15.6;100;95387.59;;;;
2019/08/27 04:30:00;;;;;;;17.5;15.65;;;;;;;15.6;100;95387.59;;;;
2019/08/27 04:31:01;;;;;;;17.5;15.65;;;;;;;15.6;100;95387.59;;;;
2019/08/27 04:32:10;;;;;;;17.5;15.65;;;;;;;15.6;100;95387.59;;;;
2019/08/27 04:33:12;;;;;;;17.5;15.65;;;;;;;15.6;100;95387.59;;;;
2019/08/27 04:34:13;;;;;;;17.5;15.65;;;;;;;15.6;100;95387.59;;;;
2019/08/27 04:35:14;;;;;;;17.7;15.8;;;;;;;15.66;100;95397.02;;;;
2019/08/27 04:36:16;;;;;;;17.7;15.8;;;;;;;15.66;100;95397.02;;;;
2019/08/27 04:37:21;;;;;;;17.7;15.8;;;;;;;15.66;100;95397.02;;;;
2019/08/27 04:38:22;;;;;;;17.7;15.8;;;;;;;15.66;100;95397.02;;;;
2019/08/27 04:39:23;;;;;;;17.7;15.8;;;;;;;15.66;100;95397.02;;;;
2019/08/27 04:40:25;;;;;;;17.7;15.8;;;;;;;15.66;100;95397.02;;;;
2019/08/27 04:41:26;;;;;;;17.7;15.8;;;;;;;15.66;100;95397.02;;;;
2019/08/27 04:42:27;;;;;;;17.7;15.8;;;;;;;15.66;100;95397.02;;;;
2019/08/27 04:43:29;;;;;;;17.7;15.8;;;;;;;15.66;100;95397.02;;;;
2019/08/27 04:44:30;;;;;;;17.7;15.8;;;;;;;15.66;100;95397.02;;;;
2019/08/27 04:45:31;;;;;;;17.7;15.8;;;;;;;15.66;100;95397.02;;;;
2019/08/27 04:46:32;;;;;;;17.25;15.3;;;;;;;15.7;100;95413.53;;;;
2019/08/27 04:47:34;;;;;;;17.25;15.3;;;;;;;15.7;100;95413.53;;;;
2019/08/27 04:48:35;;;;;;;17.25;15.3;;;;;;;15.7;100;95413.53;;;;
2019/08/27 04:49:36;;;;;;;17.25;15.3;;;;;;;15.7;100;95413.53;;;;
2019/08/27 04:50:37;;;;;;;17.25;15.3;;;;;;;15.7;100;95413.53;;;;
2019/08/27 04:51:38;;;;;;;17.25;15.3;;;;;;;15.7;100;95413.53;;;;
2019/08/27 04:52:40;;;;;;;17.25;15.3;;;;;;;15.7;100;95413.53;;;;
2019/08/27 04:53:41;;;;;;;17.25;15.3;;;;;;;15.7;100;95413.53;;;;
2019/08/27 04:54:42;;;;;;;17.25;15.3;;;;;;;15.7;100;95413.53;;;;
2019/08/27 04:55:43;;;;;;;17.25;15.3;;;;;;;15.7;100;95413.53;;;;
2019/08/27 04:56:44;;;;;;;16;14.35;;;;;;;15.85;100;95401.89;;;;
2019/08/27 04:57:45;;;;;;;16;14.35;;;;;;;15.85;100;95401.89;;;;
2019/08/27 04:58:47;;;;;;;16;14.35;;;;;;;15.85;100;95401.89;;;;
2019/08/27 04:59:48;;;;;;;16;14.35;;;;;;;15.85;100;95401.89;;;;
2019/08/27 05:00:49;;;;;;;16;14.35;;;;;;;15.85;100;95401.89;;;;
2019/08/27 05:01:50;;;;;;;16;14.35;;;;;;;15.85;100;95401.89;;;;
2019/08/27 05:02:51;;;;;;;16;14.35;;;;;;;15.85;100;95401.89;;;;
2019/08/27 05:03:52;;;;;;;16;14.35;;;;;;;15.85;100;95401.89;;;;
2019/08/27 05:04:53;;;;;;;16;14.35;;;;;;;15.85;100;95401.89;;;;
2019/08/27 05:05:55;;;;;;;16;14.35;;;;;;;15.85;100;95401.89;;;;
2019/08/27 05:06:56;;;;;;;16;14.35;;;;;;;15.85;100;95401.89;;;;
2019/08/27 05:07:57;;;;;;;15.3;13.7;;;;;;;15.99;100;95407.12;;;;
2019/08/27 05:08:58;;;;;;;15.3;13.7;;;;;;;15.99;100;95407.12;;;;
2019/08/27 05:09:59;;;;;;;15.3;13.7;;;;;;;15.99;100;95407.12;;;;
2019/08/27 05:11:00;;;;;;;15.3;13.7;;;;;;;15.99;100;95407.12;;;;
2019/08/27 05:12:01;;;;;;;15.3;13.7;;;;;;;15.99;100;95407.12;;;;
2019/08/27 05:13:03;;;;;;;15.3;13.7;;;;;;;15.99;100;95407.12;;;;
2019/08/27 05:14:04;;;;;;;15.3;13.7;;;;;;;15.99;100;95407.12;;;;
2019/08/27 05:15:06;;;;;;;15.3;13.7;;;;;;;15.99;100;95407.12;;;;
2019/08/27 05:16:08;;;;;;;15.3;13.7;;;;;;;15.99;100;95407.12;;;;
2019/08/27 05:17:09;;;;;;;15.3;13.7;;;;;;;15.99;100;95407.12;;;;
2019/08/27 05:18:10;;;;;;;15.45;13.8;;;;;;;16.17;100;95415.23;;;;
2019/08/27 05:19:12;;;;;;;15.45;13.8;;;;;;;16.17;100;95415.23;;;;
2019/08/27 05:20:13;;;;;;;15.45;13.8;;;;;;;16.17;100;95415.23;;;;
2019/08/27 05:21:15;;;;;;;15.45;13.8;;;;;;;16.17;100;95415.23;;;;
2019/08/27 05:22:16;;;;;;;15.45;13.8;;;;;;;16.17;100;95415.23;;;;
2019/08/27 05:23:18;;;;;;;15.45;13.8;;;;;;;16.17;100;95415.23;;;;
2019/08/27 05:24:20;;;;;;;15.45;13.8;;;;;;;16.17;100;95415.23;;;;
2019/08/27 05:25:21;;;;;;;15.45;13.8;;;;;;;16.17;100;95415.23;;;;
2019/08/27 05:26:23;;;;;;;15.45;13.8;;;;;;;16.17;100;95415.23;;;;
2019/08/27 05:27:24;;;;;;;15.45;13.8;;;;;;;16.17;100;95415.23;;;;
2019/08/27 05:28:26;;;;;;;18;13.45;;;;;;;16.42;100;95408.08;;;;
2019/08/27 05:29:27;;;;;;;18;13.45;;;;;;;16.42;100;95408.08;;;;
2019/08/27 05:30:29;;;;;;;18;13.45;;;;;;;16.42;100;95408.08;;;;
2019/08/27 05:31:33;;;;;;;18;13.45;;;;;;;16.42;100;95408.08;;;;
2019/08/27 05:32:35;;;;;;;18;13.45;;;;;;;16.42;100;95408.08;;;;
2019/08/27 05:33:36;;;;;;;18;13.45;;;;;;;16.42;100;95408.08;;;;
2019/08/27 05:34:38;;;;;;;18;13.45;;;;;;;16.42;100;95408.08;;;;
2019/08/27 05:35:39;;;;;;;18;13.45;;;;;;;16.42;100;95408.08;;;;
2019/08/27 05:36:42;;;;;;;18;13.45;;;;;;;16.42;100;95408.08;;;;
2019/08/27 05:37:44;;;;;;;18;13.45;;;;;;;16.42;100;95408.08;;;;
2019/08/27 05:38:45;;;;;;;18;13.45;;;;;;;16.42;100;95408.08;;;;
2019/08/27 05:39:46;;;;;;;14.3;12.55;;;;;;;16.78;100;95410.23;;;;
2019/08/27 05:40:48;;;;;;;14.3;12.55;;;;;;;16.78;100;95410.23;;;;
2019/08/27 05:41:49;;;;;;;14.3;12.55;;;;;;;16.78;100;95410.23;;;;
2019/08/27 05:42:50;;;;;;;14.3;12.55;;;;;;;16.78;100;95410.23;;;;
2019/08/27 05:43:51;;;;;;;14.3;12.55;;;;;;;16.78;100;95410.23;;;;
2019/08/27 05:44:52;;;;;;;14.3;12.55;;;;;;;16.78;100;95410.23;;;;
2019/08/27 05:45:53;;;;;;;14.3;12.55;;;;;;;16.78;100;95410.23;;;;
2019/08/27 05:46:55;;;;;;;14.3;12.55;;;;;;;16.78;100;95410.23;;;;
2019/08/27 05:47:56;;;;;;;14.3;12.55;;;;;;;16.78;100;95410.23;;;;
2019/08/27 05:48:57;;;;;;;14.3;12.55;;;;;;;16.78;100;95410.23;;;;
2019/08/27 05:49:58;;;;;;;13.4;11.4;;;;;;;17.15;100;95410.36;;;;
2019/08/27 05:50:59;;;;;;;13.4;11.4;;;;;;;17.15;100;95410.36;;;;
2019/08/27 05:52:00;;;;;;;13.4;11.4;;;;;;;17.15;100;95410.36;;;;
2019/08/27 05:53:02;;;;;;;13.4;11.4;;;;;;;17.15;100;95410.36;;;;
2019/08/27 05:54:03;;;;;;;13.4;11.4;;;;;;;17.15;100;95410.36;;;;
2019/08/27 05:55:05;;;;;;;13.4;11.4;;;;;;;17.15;100;95410.36;;;;
2019/08/27 05:56:07;;;;;;;13.4;11.4;;;;;;;17.15;100;95410.36;;;;
2019/08/27 05:57:08;;;;;;;13.4;11.4;;;;;;;17.15;100;95410.36;;;;
2019/08/27 05:58:10;;;;;;;13.4;11.4;;;;;;;17.15;100;95410.36;;;;
2019/08/27 05:59:11;;;;;;;13.4;11.4;;;;;;;17.15;100;95410.36;;;;
2019/08/27 06:00:12;;;;;;;11.8;10.6;;;;;;;17.61;100;95417.99;;;;
2019/08/27 06:01:14;;;;;;;11.8;10.6;;;;;;;17.61;100;95417.99;;;;
2019/08/27 06:02:16;;;;;;;11.8;10.6;;;;;;;17.61;100;95417.99;;;;
2019/08/27 06:03:17;;;;;;;11.8;10.6;;;;;;;17.61;100;95417.99;;;;
2019/08/27 06:04:18;;;;;;;11.8;10.6;;;;;;;17.61;100;95417.99;;;;
2019/08/27 06:05:19;;;;;;;11.8;10.6;;;;;;;17.61;100;95417.99;;;;
2019/08/27 06:06:21;;;;;;;11.8;10.6;;;;;;;17.61;100;95417.99;;;;
2019/08/27 06:07:22;;;;;;;11.8;10.6;;;;;;;17.61;100;95417.99;;;;
2019/08/27 06:08:23;;;;;;;11.8;10.6;;;;;;;17.61;100;95417.99;;;;
2019/08/27 06:09:24;;;;;;;11.8;10.6;;;;;;;17.61;100;95417.99;;;;
2019/08/27 06:10:25;;;;;;;11.8;10.6;;;;;;;17.61;100;95417.99;;;;
2019/08/27 06:11:27;;;;;;;11.45;10.25;;;;;;;18.06;100;95428.77;;;;
2019/08/27 06:12:28;;;;;;;11.45;10.25;;;;;;;18.06;100;95428.77;;;;
2019/08/27 06:13:29;;;;;;;11.45;10.25;;;;;;;18.06;100;95428.77;;;;
2019/08/27 06:14:31;;;;;;;11.45;10.25;;;;;;;18.06;100;95428.77;;;;
2019/08/27 06:15:32;;;;;;;11.45;10.25;;;;;;;18.06;100;95428.77;;;;
2019/08/27 06:16:43;;;;;;;11.45;10.25;;;;;;;18.06;100;95428.77;;;;
2019/08/27 06:17:44;;;;;;;11.45;10.25;;;;;;;18.06;100;95428.77;;;;
2019/08/27 06:18:45;;;;;;;11.45;10.25;;;;;;;18.06;100;95428.77;;;;
2019/08/27 06:19:47;;;;;;;11.45;10.25;;;;;;;18.06;100;95428.77;;;;
2019/08/27 06:20:48;;;;;;;11.45;10.25;;;;;;;18.06;100;95428.77;;;;